sensor_id;sensor_type;location;lat;lon;timestamp;P1;durP1;ratioP1;P2;durP2;ratioP2
67889;SDS011;54685;52.082;5.426;2022-08-30T00:00:48;8.18;;;3.88;;
67889;SDS011;54685;52.082;5.426;2022-08-30T00:03:28;5.13;;;3.33;;
67889;SDS011;54685;52.082;5.426;2022-08-30T00:05:57;7.57;;;3.92;;
67889;SDS011;54685;52.082;5.426;2022-08-30T00:08:24;12.48;;;3.75;;
67889;SDS011;54685;52.082;5.426;2022-08-30T00:10:50;6.40;;;3.55;;
67889;SDS011;54685;52.082;5.426;2022-08-30T00:13:18;8.15;;;3.90;;
67889;SDS011;54685;52.082;5.426;2022-08-30T00:15:45;6.32;;;3.47;;
67889;SDS011;54685;52.082;5.426;2022-08-30T00:18:14;7.93;;;3.80;;
67889;SDS011;54685;52.082;5.426;2022-08-30T00:20:43;7.22;;;3.88;;
67889;SDS011;54685;52.082;5.426;2022-08-30T00:23:11;6.72;;;3.95;;
67889;SDS011;54685;52.082;5.426;2022-08-30T00:25:39;10.98;;;4.40;;
67889;SDS011;54685;52.082;5.426;2022-08-30T00:28:06;5.50;;;3.80;;
67889;SDS011;54685;52.082;5.426;2022-08-30T00:30:35;6.20;;;3.13;;
67889;SDS011;54685;52.082;5.426;2022-08-30T00:33:01;7.68;;;4.07;;
67889;SDS011;54685;52.082;5.426;2022-08-30T00:35:29;6.70;;;3.97;;
67889;SDS011;54685;52.082;5.426;2022-08-30T00:37:56;6.70;;;3.90;;
67889;SDS011;54685;52.082;5.426;2022-08-30T00:40:23;5.18;;;3.95;;
67889;SDS011;54685;52.082;5.426;2022-08-30T00:42:54;6.13;;;4.07;;
67889;SDS011;54685;52.082;5.426;2022-08-30T00:45:27;5.63;;;3.80;;
67889;SDS011;54685;52.082;5.426;2022-08-30T00:47:58;9.13;;;4.30;;
67889;SDS011;54685;52.082;5.426;2022-08-30T00:50:27;7.00;;;3.55;;
67889;SDS011;54685;52.082;5.426;2022-08-30T00:52:58;7.53;;;3.85;;
67889;SDS011;54685;52.082;5.426;2022-08-30T00:55:27;9.50;;;3.75;;
67889;SDS011;54685;52.082;5.426;2022-08-30T00:57:55;7.55;;;3.78;;
67889;SDS011;54685;52.082;5.426;2022-08-30T01:00:27;9.15;;;4.43;;
67889;SDS011;54685;52.082;5.426;2022-08-30T01:02:54;5.53;;;4.00;;
67889;SDS011;54685;52.082;5.426;2022-08-30T01:05:21;7.45;;;4.22;;
67889;SDS011;54685;52.082;5.426;2022-08-30T01:07:49;6.22;;;3.75;;
67889;SDS011;54685;52.082;5.426;2022-08-30T01:10:16;6.75;;;3.75;;
67889;SDS011;54685;52.082;5.426;2022-08-30T01:12:43;5.78;;;4.13;;
67889;SDS011;54685;52.082;5.426;2022-08-30T01:15:11;5.75;;;4.20;;
67889;SDS011;54685;52.082;5.426;2022-08-30T01:17:43;7.57;;;4.32;;
67889;SDS011;54685;52.082;5.426;2022-08-30T01:20:15;10.05;;;4.25;;
67889;SDS011;54685;52.082;5.426;2022-08-30T01:25:18;6.95;;;4.18;;
67889;SDS011;54685;52.082;5.426;2022-08-30T01:28:00;7.82;;;4.13;;
67889;SDS011;54685;52.082;5.426;2022-08-30T01:30:30;4.78;;;3.95;;
67889;SDS011;54685;52.082;5.426;2022-08-30T01:32:59;5.15;;;4.22;;
67889;SDS011;54685;52.082;5.426;2022-08-30T01:35:29;7.85;;;4.63;;
67889;SDS011;54685;52.082;5.426;2022-08-30T01:38:03;9.88;;;4.40;;
67889;SDS011;54685;52.082;5.426;2022-08-30T01:40:30;7.70;;;4.43;;
67889;SDS011;54685;52.082;5.426;2022-08-30T01:42:57;8.82;;;4.88;;
67889;SDS011;54685;52.082;5.426;2022-08-30T01:45:24;7.38;;;4.03;;
67889;SDS011;54685;52.082;5.426;2022-08-30T01:47:50;6.53;;;4.65;;
67889;SDS011;54685;52.082;5.426;2022-08-30T01:50:17;7.68;;;4.50;;
67889;SDS011;54685;52.082;5.426;2022-08-30T01:52:44;8.50;;;4.57;;
67889;SDS011;54685;52.082;5.426;2022-08-30T01:55:10;6.63;;;4.50;;
67889;SDS011;54685;52.082;5.426;2022-08-30T01:57:37;8.95;;;4.80;;
67889;SDS011;54685;52.082;5.426;2022-08-30T02:00:05;7.40;;;4.88;;
67889;SDS011;54685;52.082;5.426;2022-08-30T02:02:36;5.70;;;4.20;;
67889;SDS011;54685;52.082;5.426;2022-08-30T02:05:04;6.68;;;4.50;;
67889;SDS011;54685;52.082;5.426;2022-08-30T02:07:31;5.75;;;4.95;;
67889;SDS011;54685;52.082;5.426;2022-08-30T02:09:58;8.05;;;4.85;;
67889;SDS011;54685;52.082;5.426;2022-08-30T02:12:25;8.63;;;4.95;;
67889;SDS011;54685;52.082;5.426;2022-08-30T02:14:51;9.95;;;4.45;;
67889;SDS011;54685;52.082;5.426;2022-08-30T02:17:18;7.10;;;5.25;;
67889;SDS011;54685;52.082;5.426;2022-08-30T02:19:45;10.98;;;5.25;;
67889;SDS011;54685;52.082;5.426;2022-08-30T02:22:12;7.05;;;5.43;;
67889;SDS011;54685;52.082;5.426;2022-08-30T02:24:39;8.10;;;5.47;;
67889;SDS011;54685;52.082;5.426;2022-08-30T02:27:05;9.55;;;5.32;;
67889;SDS011;54685;52.082;5.426;2022-08-30T02:29:32;8.35;;;5.20;;
67889;SDS011;54685;52.082;5.426;2022-08-30T02:32:00;7.45;;;5.38;;
67889;SDS011;54685;52.082;5.426;2022-08-30T02:34:27;7.22;;;5.43;;
67889;SDS011;54685;52.082;5.426;2022-08-30T02:36:53;7.82;;;5.45;;
67889;SDS011;54685;52.082;5.426;2022-08-30T02:39:20;7.25;;;5.47;;
67889;SDS011;54685;52.082;5.426;2022-08-30T02:41:47;5.85;;;5.05;;
67889;SDS011;54685;52.082;5.426;2022-08-30T02:44:14;6.90;;;5.28;;
67889;SDS011;54685;52.082;5.426;2022-08-30T02:46:41;8.85;;;5.80;;
67889;SDS011;54685;52.082;5.426;2022-08-30T02:49:07;7.57;;;5.78;;
67889;SDS011;54685;52.082;5.426;2022-08-30T02:51:54;7.75;;;5.43;;
67889;SDS011;54685;52.082;5.426;2022-08-30T02:54:21;9.40;;;6.00;;
67889;SDS011;54685;52.082;5.426;2022-08-30T02:56:48;6.43;;;5.78;;
67889;SDS011;54685;52.082;5.426;2022-08-30T02:59:16;9.50;;;5.47;;
67889;SDS011;54685;52.082;5.426;2022-08-30T03:01:43;8.55;;;6.20;;
67889;SDS011;54685;52.082;5.426;2022-08-30T03:04:10;6.35;;;5.60;;
67889;SDS011;54685;52.082;5.426;2022-08-30T03:06:37;7.15;;;6.00;;
67889;SDS011;54685;52.082;5.426;2022-08-30T03:09:04;7.72;;;6.00;;
67889;SDS011;54685;52.082;5.426;2022-08-30T03:11:30;7.60;;;5.68;;
67889;SDS011;54685;52.082;5.426;2022-08-30T03:13:57;9.00;;;6.28;;
67889;SDS011;54685;52.082;5.426;2022-08-30T03:16:24;7.65;;;6.22;;
67889;SDS011;54685;52.082;5.426;2022-08-30T03:18:51;8.65;;;6.20;;
67889;SDS011;54685;52.082;5.426;2022-08-30T03:21:18;8.77;;;6.57;;
67889;SDS011;54685;52.082;5.426;2022-08-30T03:23:45;11.10;;;6.35;;
67889;SDS011;54685;52.082;5.426;2022-08-30T03:26:11;8.38;;;6.40;;
67889;SDS011;54685;52.082;5.426;2022-08-30T03:28:40;7.57;;;6.03;;
67889;SDS011;54685;52.082;5.426;2022-08-30T03:31:08;8.70;;;6.40;;
67889;SDS011;54685;52.082;5.426;2022-08-30T03:33:35;8.00;;;6.20;;
67889;SDS011;54685;52.082;5.426;2022-08-30T03:36:06;7.97;;;6.28;;
67889;SDS011;54685;52.082;5.426;2022-08-30T03:38:33;7.93;;;6.50;;
67889;SDS011;54685;52.082;5.426;2022-08-30T03:41:00;8.05;;;6.65;;
67889;SDS011;54685;52.082;5.426;2022-08-30T03:43:27;10.57;;;6.90;;
67889;SDS011;54685;52.082;5.426;2022-08-30T03:45:54;8.15;;;6.53;;
67889;SDS011;54685;52.082;5.426;2022-08-30T03:48:21;6.93;;;6.22;;
67889;SDS011;54685;52.082;5.426;2022-08-30T03:50:48;9.82;;;7.07;;
67889;SDS011;54685;52.082;5.426;2022-08-30T03:53:15;11.15;;;6.97;;
67889;SDS011;54685;52.082;5.426;2022-08-30T03:55:42;9.55;;;6.53;;
67889;SDS011;54685;52.082;5.426;2022-08-30T03:58:09;7.63;;;6.72;;
67889;SDS011;54685;52.082;5.426;2022-08-30T04:00:36;10.43;;;6.93;;
67889;SDS011;54685;52.082;5.426;2022-08-30T04:03:03;9.68;;;7.60;;
67889;SDS011;54685;52.082;5.426;2022-08-30T04:05:30;8.88;;;7.97;;
67889;SDS011;54685;52.082;5.426;2022-08-30T04:07:57;10.93;;;7.70;;
67889;SDS011;54685;52.082;5.426;2022-08-30T04:10:23;7.90;;;7.18;;
67889;SDS011;54685;52.082;5.426;2022-08-30T04:12:51;9.60;;;7.20;;
67889;SDS011;54685;52.082;5.426;2022-08-30T04:15:18;9.15;;;7.13;;
67889;SDS011;54685;52.082;5.426;2022-08-30T04:17:45;9.25;;;7.50;;
67889;SDS011;54685;52.082;5.426;2022-08-30T04:20:13;11.80;;;7.63;;
67889;SDS011;54685;52.082;5.426;2022-08-30T04:22:41;11.05;;;7.40;;
67889;SDS011;54685;52.082;5.426;2022-08-30T04:25:08;8.13;;;7.32;;
67889;SDS011;54685;52.082;5.426;2022-08-30T04:27:41;8.80;;;7.93;;
67889;SDS011;54685;52.082;5.426;2022-08-30T04:30:09;9.30;;;7.93;;
67889;SDS011;54685;52.082;5.426;2022-08-30T04:32:37;11.60;;;7.63;;
67889;SDS011;54685;52.082;5.426;2022-08-30T04:35:04;8.65;;;7.70;;
67889;SDS011;54685;52.082;5.426;2022-08-30T04:37:31;11.63;;;7.80;;
67889;SDS011;54685;52.082;5.426;2022-08-30T04:39:58;8.15;;;7.35;;
67889;SDS011;54685;52.082;5.426;2022-08-30T04:42:32;8.02;;;7.20;;
67889;SDS011;54685;52.082;5.426;2022-08-30T04:45:04;9.02;;;7.35;;
67889;SDS011;54685;52.082;5.426;2022-08-30T04:47:36;7.90;;;7.10;;
67889;SDS011;54685;52.082;5.426;2022-08-30T04:50:05;8.45;;;7.60;;
67889;SDS011;54685;52.082;5.426;2022-08-30T04:52:33;8.98;;;8.07;;
67889;SDS011;54685;52.082;5.426;2022-08-30T04:55:00;13.57;;;8.15;;
67889;SDS011;54685;52.082;5.426;2022-08-30T04:57:27;11.38;;;7.35;;
67889;SDS011;54685;52.082;5.426;2022-08-30T04:59:54;11.05;;;7.60;;
67889;SDS011;54685;52.082;5.426;2022-08-30T05:02:21;9.82;;;7.65;;
67889;SDS011;54685;52.082;5.426;2022-08-30T05:04:48;9.07;;;7.63;;
67889;SDS011;54685;52.082;5.426;2022-08-30T05:07:34;10.77;;;8.43;;
67889;SDS011;54685;52.082;5.426;2022-08-30T05:10:01;8.77;;;7.90;;
67889;SDS011;54685;52.082;5.426;2022-08-30T05:12:35;9.88;;;8.00;;
67889;SDS011;54685;52.082;5.426;2022-08-30T05:15:02;9.25;;;8.15;;
67889;SDS011;54685;52.082;5.426;2022-08-30T05:17:30;9.35;;;8.15;;
67889;SDS011;54685;52.082;5.426;2022-08-30T05:19:59;9.32;;;8.20;;
67889;SDS011;54685;52.082;5.426;2022-08-30T05:22:26;8.30;;;7.47;;
67889;SDS011;54685;52.082;5.426;2022-08-30T05:24:53;9.25;;;8.32;;
67889;SDS011;54685;52.082;5.426;2022-08-30T05:27:20;9.30;;;7.63;;
67889;SDS011;54685;52.082;5.426;2022-08-30T05:29:46;9.55;;;7.88;;
67889;SDS011;54685;52.082;5.426;2022-08-30T05:32:13;11.27;;;8.70;;
67889;SDS011;54685;52.082;5.426;2022-08-30T05:34:40;8.95;;;8.15;;
67889;SDS011;54685;52.082;5.426;2022-08-30T05:37:07;11.48;;;8.07;;
67889;SDS011;54685;52.082;5.426;2022-08-30T05:39:33;9.63;;;8.55;;
67889;SDS011;54685;52.082;5.426;2022-08-30T05:42:17;9.25;;;7.88;;
67889;SDS011;54685;52.082;5.426;2022-08-30T05:44:44;9.82;;;8.38;;
67889;SDS011;54685;52.082;5.426;2022-08-30T05:47:11;11.80;;;8.88;;
67889;SDS011;54685;52.082;5.426;2022-08-30T05:49:38;10.55;;;7.68;;
67889;SDS011;54685;52.082;5.426;2022-08-30T05:52:04;9.82;;;8.82;;
67889;SDS011;54685;52.082;5.426;2022-08-30T05:54:32;9.25;;;8.27;;
67889;SDS011;54685;52.082;5.426;2022-08-30T05:56:58;9.40;;;8.32;;
67889;SDS011;54685;52.082;5.426;2022-08-30T05:59:25;11.02;;;8.50;;
67889;SDS011;54685;52.082;5.426;2022-08-30T06:01:52;13.73;;;9.38;;
67889;SDS011;54685;52.082;5.426;2022-08-30T06:04:23;9.23;;;8.35;;
67889;SDS011;54685;52.082;5.426;2022-08-30T06:06:50;10.30;;;8.63;;
67889;SDS011;54685;52.082;5.426;2022-08-30T06:09:17;12.85;;;8.52;;
67889;SDS011;54685;52.082;5.426;2022-08-30T06:11:45;12.93;;;8.50;;
67889;SDS011;54685;52.082;5.426;2022-08-30T06:14:12;13.10;;;8.82;;
67889;SDS011;54685;52.082;5.426;2022-08-30T06:16:39;10.15;;;8.60;;
67889;SDS011;54685;52.082;5.426;2022-08-30T06:19:09;9.27;;;8.38;;
67889;SDS011;54685;52.082;5.426;2022-08-30T06:21:36;12.30;;;9.00;;
67889;SDS011;54685;52.082;5.426;2022-08-30T06:24:06;12.55;;;8.60;;
67889;SDS011;54685;52.082;5.426;2022-08-30T06:26:38;13.32;;;9.25;;
67889;SDS011;54685;52.082;5.426;2022-08-30T06:29:08;9.43;;;8.52;;
67889;SDS011;54685;52.082;5.426;2022-08-30T06:31:37;10.70;;;8.30;;
67889;SDS011;54685;52.082;5.426;2022-08-30T06:34:04;9.27;;;8.07;;
67889;SDS011;54685;52.082;5.426;2022-08-30T06:36:32;10.63;;;7.40;;
67889;SDS011;54685;52.082;5.426;2022-08-30T06:38:59;10.73;;;7.70;;
67889;SDS011;54685;52.082;5.426;2022-08-30T06:41:27;8.02;;;7.22;;
67889;SDS011;54685;52.082;5.426;2022-08-30T06:43:56;7.75;;;6.72;;
67889;SDS011;54685;52.082;5.426;2022-08-30T06:46:29;9.52;;;6.78;;
67889;SDS011;54685;52.082;5.426;2022-08-30T06:48:58;6.93;;;5.85;;
67889;SDS011;54685;52.082;5.426;2022-08-30T06:51:30;8.82;;;6.03;;
67889;SDS011;54685;52.082;5.426;2022-08-30T06:54:00;10.40;;;5.70;;
67889;SDS011;54685;52.082;5.426;2022-08-30T06:56:28;7.45;;;5.45;;
67889;SDS011;54685;52.082;5.426;2022-08-30T06:58:56;7.63;;;5.32;;
67889;SDS011;54685;52.082;5.426;2022-08-30T07:01:24;8.60;;;5.15;;
67889;SDS011;54685;52.082;5.426;2022-08-30T07:03:52;5.13;;;4.63;;
67889;SDS011;54685;52.082;5.426;2022-08-30T07:06:21;9.13;;;4.90;;
67889;SDS011;54685;52.082;5.426;2022-08-30T07:08:49;6.55;;;4.97;;
67889;SDS011;54685;52.082;5.426;2022-08-30T07:14:01;6.78;;;3.35;;
67889;SDS011;54685;52.082;5.426;2022-08-30T07:16:28;3.83;;;3.42;;
67889;SDS011;54685;52.082;5.426;2022-08-30T07:18:55;9.13;;;3.58;;
67889;SDS011;54685;52.082;5.426;2022-08-30T07:21:25;5.53;;;3.28;;
67889;SDS011;54685;52.082;5.426;2022-08-30T07:23:54;5.00;;;3.17;;
67889;SDS011;54685;52.082;5.426;2022-08-30T07:26:24;6.38;;;2.90;;
67889;SDS011;54685;52.082;5.426;2022-08-30T07:28:54;2.88;;;2.08;;
67889;SDS011;54685;52.082;5.426;2022-08-30T07:31:22;5.97;;;2.75;;
67889;SDS011;54685;52.082;5.426;2022-08-30T07:33:49;6.38;;;2.20;;
67889;SDS011;54685;52.082;5.426;2022-08-30T07:36:17;2.42;;;2.10;;
67889;SDS011;54685;52.082;5.426;2022-08-30T07:38:44;4.95;;;1.63;;
67889;SDS011;54685;52.082;5.426;2022-08-30T07:41:15;5.25;;;1.75;;
67889;SDS011;54685;52.082;5.426;2022-08-30T07:43:43;3.58;;;1.50;;
67889;SDS011;54685;52.082;5.426;2022-08-30T07:46:09;5.78;;;1.70;;
67889;SDS011;54685;52.082;5.426;2022-08-30T07:48:36;5.88;;;1.50;;
67889;SDS011;54685;52.082;5.426;2022-08-30T07:51:13;4.20;;;1.50;;
67889;SDS011;54685;52.082;5.426;2022-08-30T07:53:41;3.40;;;1.30;;
67889;SDS011;54685;52.082;5.426;2022-08-30T07:56:09;7.15;;;1.50;;
67889;SDS011;54685;52.082;5.426;2022-08-30T07:58:35;2.17;;;1.40;;
67889;SDS011;54685;52.082;5.426;2022-08-30T08:01:03;3.92;;;1.58;;
67889;SDS011;54685;52.082;5.426;2022-08-30T08:03:31;4.57;;;1.38;;
67889;SDS011;54685;52.082;5.426;2022-08-30T08:06:00;4.75;;;1.45;;
67889;SDS011;54685;52.082;5.426;2022-08-30T08:08:28;1.73;;;1.00;;
67889;SDS011;54685;52.082;5.426;2022-08-30T08:10:55;4.78;;;1.30;;
67889;SDS011;54685;52.082;5.426;2022-08-30T08:13:23;1.13;;;1.02;;
67889;SDS011;54685;52.082;5.426;2022-08-30T08:15:53;2.88;;;1.40;;
67889;SDS011;54685;52.082;5.426;2022-08-30T08:18:20;3.88;;;1.27;;
67889;SDS011;54685;52.082;5.426;2022-08-30T08:20:47;2.58;;;1.50;;
67889;SDS011;54685;52.082;5.426;2022-08-30T08:23:14;3.30;;;1.40;;
67889;SDS011;54685;52.082;5.426;2022-08-30T08:25:41;3.17;;;1.30;;
67889;SDS011;54685;52.082;5.426;2022-08-30T08:28:08;2.95;;;1.30;;
67889;SDS011;54685;52.082;5.426;2022-08-30T08:30:35;5.20;;;1.50;;
67889;SDS011;54685;52.082;5.426;2022-08-30T08:33:03;4.53;;;1.35;;
67889;SDS011;54685;52.082;5.426;2022-08-30T08:35:30;4.78;;;1.27;;
67889;SDS011;54685;52.082;5.426;2022-08-30T08:37:58;1.85;;;1.10;;
67889;SDS011;54685;52.082;5.426;2022-08-30T08:40:25;6.20;;;1.40;;
67889;SDS011;54685;52.082;5.426;2022-08-30T08:45:52;3.35;;;1.50;;
67889;SDS011;54685;52.082;5.426;2022-08-30T08:48:43;2.47;;;1.02;;
67889;SDS011;54685;52.082;5.426;2022-08-30T08:51:26;5.97;;;1.38;;
67889;SDS011;54685;52.082;5.426;2022-08-30T08:54:26;3.70;;;1.35;;
67889;SDS011;54685;52.082;5.426;2022-08-30T08:56:59;8.93;;;1.55;;
67889;SDS011;54685;52.082;5.426;2022-08-30T08:59:26;2.80;;;1.15;;
67889;SDS011;54685;52.082;5.426;2022-08-30T09:01:54;4.07;;;1.20;;
67889;SDS011;54685;52.082;5.426;2022-08-30T09:04:25;6.82;;;1.13;;
67889;SDS011;54685;52.082;5.426;2022-08-30T09:09:39;8.25;;;1.10;;
67889;SDS011;54685;52.082;5.426;2022-08-30T09:12:09;1.58;;;1.10;;
67889;SDS011;54685;52.082;5.426;2022-08-30T09:14:39;8.13;;;1.23;;
67889;SDS011;54685;52.082;5.426;2022-08-30T09:17:15;4.82;;;1.38;;
67889;SDS011;54685;52.082;5.426;2022-08-30T09:25:31;2.53;;;1.40;;
67889;SDS011;54685;52.082;5.426;2022-08-30T09:27:51;5.80;;;1.30;;
67889;SDS011;54685;52.082;5.426;2022-08-30T09:30:26;2.80;;;1.48;;
67889;SDS011;54685;52.082;5.426;2022-08-30T09:35:24;1.98;;;1.20;;
67889;SDS011;54685;52.082;5.426;2022-08-30T09:38:09;5.35;;;1.50;;
67889;SDS011;54685;52.082;5.426;2022-08-30T09:40:44;7.82;;;1.42;;
67889;SDS011;54685;52.082;5.426;2022-08-30T09:45:44;2.67;;;1.52;;
67889;SDS011;54685;52.082;5.426;2022-08-30T09:51:18;9.02;;;1.65;;
67889;SDS011;54685;52.082;5.426;2022-08-30T09:54:13;2.90;;;1.48;;
67889;SDS011;54685;52.082;5.426;2022-08-30T09:57:05;1.63;;;1.10;;
67889;SDS011;54685;52.082;5.426;2022-08-30T09:59:53;8.35;;;1.60;;
67889;SDS011;54685;52.082;5.426;2022-08-30T10:08:23;2.03;;;1.10;;
67889;SDS011;54685;52.082;5.426;2022-08-30T10:20:01;5.28;;;1.40;;
67889;SDS011;54685;52.082;5.426;2022-08-30T10:25:32;1.77;;;1.20;;
67889;SDS011;54685;52.082;5.426;2022-08-30T10:28:06;4.63;;;1.25;;
67889;SDS011;54685;52.082;5.426;2022-08-30T10:30:55;3.65;;;1.17;;
67889;SDS011;54685;52.082;5.426;2022-08-30T10:33:35;3.30;;;1.20;;
67889;SDS011;54685;52.082;5.426;2022-08-30T10:36:08;2.83;;;1.50;;
67889;SDS011;54685;52.082;5.426;2022-08-30T10:38:37;4.35;;;1.48;;
67889;SDS011;54685;52.082;5.426;2022-08-30T10:49:29;3.28;;;1.23;;
67889;SDS011;54685;52.082;5.426;2022-08-30T10:55:05;2.70;;;1.13;;
67889;SDS011;54685;52.082;5.426;2022-08-30T10:57:37;3.15;;;1.00;;
67889;SDS011;54685;52.082;5.426;2022-08-30T11:00:11;4.38;;;1.27;;
67889;SDS011;54685;52.082;5.426;2022-08-30T11:03:01;3.80;;;1.30;;
67889;SDS011;54685;52.082;5.426;2022-08-30T11:06:02;3.35;;;1.20;;
67889;SDS011;54685;52.082;5.426;2022-08-30T11:14:23;4.07;;;1.67;;
67889;SDS011;54685;52.082;5.426;2022-08-30T11:16:52;5.05;;;1.20;;
67889;SDS011;54685;52.082;5.426;2022-08-30T11:19:25;2.23;;;1.20;;
67889;SDS011;54685;52.082;5.426;2022-08-30T11:22:13;4.32;;;1.60;;
67889;SDS011;54685;52.082;5.426;2022-08-30T11:27:39;8.68;;;2.05;;
67889;SDS011;54685;52.082;5.426;2022-08-30T11:30:45;60.08;;;8.90;;
67889;SDS011;54685;52.082;5.426;2022-08-30T11:33:25;6.50;;;1.40;;
67889;SDS011;54685;52.082;5.426;2022-08-30T11:36:04;4.40;;;1.38;;
67889;SDS011;54685;52.082;5.426;2022-08-30T11:43:55;2.53;;;1.40;;
67889;SDS011;54685;52.082;5.426;2022-08-30T11:46:40;1.90;;;1.27;;
67889;SDS011;54685;52.082;5.426;2022-08-30T11:51:46;4.45;;;1.40;;
67889;SDS011;54685;52.082;5.426;2022-08-30T11:54:51;4.18;;;1.17;;
67889;SDS011;54685;52.082;5.426;2022-08-30T12:00:34;5.80;;;1.35;;
67889;SDS011;54685;52.082;5.426;2022-08-30T12:10:46;2.58;;;1.30;;
67889;SDS011;54685;52.082;5.426;2022-08-30T12:16:06;4.95;;;1.58;;
67889;SDS011;54685;52.082;5.426;2022-08-30T12:18:56;1.20;;;1.10;;
67889;SDS011;54685;52.082;5.426;2022-08-30T12:21:38;1.75;;;1.10;;
67889;SDS011;54685;52.082;5.426;2022-08-30T12:26:51;3.08;;;1.10;;
67889;SDS011;54685;52.082;5.426;2022-08-30T12:29:20;3.92;;;1.23;;
67889;SDS011;54685;52.082;5.426;2022-08-30T12:32:00;2.72;;;1.20;;
67889;SDS011;54685;52.082;5.426;2022-08-30T12:37:20;2.20;;;1.30;;
67889;SDS011;54685;52.082;5.426;2022-08-30T12:40:15;3.92;;;1.02;;
67889;SDS011;54685;52.082;5.426;2022-08-30T12:42:49;4.38;;;1.20;;
67889;SDS011;54685;52.082;5.426;2022-08-30T12:45:19;4.45;;;1.38;;
67889;SDS011;54685;52.082;5.426;2022-08-30T12:47:51;7.82;;;1.10;;
67889;SDS011;54685;52.082;5.426;2022-08-30T12:50:22;3.25;;;1.25;;
67889;SDS011;54685;52.082;5.426;2022-08-30T12:55:54;1.40;;;1.23;;
67889;SDS011;54685;52.082;5.426;2022-08-30T13:01:13;3.88;;;1.20;;
67889;SDS011;54685;52.082;5.426;2022-08-30T13:03:57;3.75;;;1.35;;
67889;SDS011;54685;52.082;5.426;2022-08-30T13:09:30;10.57;;;1.23;;
67889;SDS011;54685;52.082;5.426;2022-08-30T13:12:04;3.05;;;1.15;;
67889;SDS011;54685;52.082;5.426;2022-08-30T13:14:39;6.30;;;1.20;;
67889;SDS011;54685;52.082;5.426;2022-08-30T13:20:03;5.05;;;1.13;;
67889;SDS011;54685;52.082;5.426;2022-08-30T13:23:08;4.80;;;1.55;;
67889;SDS011;54685;52.082;5.426;2022-08-30T13:25:36;5.35;;;1.40;;
67889;SDS011;54685;52.082;5.426;2022-08-30T13:28:04;2.33;;;0.85;;
67889;SDS011;54685;52.082;5.426;2022-08-30T13:30:32;2.97;;;1.10;;
67889;SDS011;54685;52.082;5.426;2022-08-30T13:32:59;3.22;;;1.30;;
67889;SDS011;54685;52.082;5.426;2022-08-30T13:35:30;6.22;;;1.38;;
67889;SDS011;54685;52.082;5.426;2022-08-30T13:37:58;2.73;;;1.50;;
67889;SDS011;54685;52.082;5.426;2022-08-30T13:40:26;1.77;;;1.42;;
67889;SDS011;54685;52.082;5.426;2022-08-30T13:42:53;1.88;;;1.00;;
67889;SDS011;54685;52.082;5.426;2022-08-30T13:45:20;1.73;;;1.20;;
67889;SDS011;54685;52.082;5.426;2022-08-30T13:48:07;5.45;;;1.70;;
67889;SDS011;54685;52.082;5.426;2022-08-30T13:50:37;9.20;;;2.47;;
67889;SDS011;54685;52.082;5.426;2022-08-30T13:53:04;4.03;;;1.90;;
67889;SDS011;54685;52.082;5.426;2022-08-30T13:55:32;11.75;;;2.80;;
67889;SDS011;54685;52.082;5.426;2022-08-30T13:57:58;3.92;;;2.42;;
67889;SDS011;54685;52.082;5.426;2022-08-30T14:00:26;4.70;;;2.70;;
67889;SDS011;54685;52.082;5.426;2022-08-30T14:02:53;3.30;;;2.38;;
67889;SDS011;54685;52.082;5.426;2022-08-30T14:05:26;3.08;;;2.17;;
67889;SDS011;54685;52.082;5.426;2022-08-30T14:08:26;2.63;;;1.77;;
67889;SDS011;54685;52.082;5.426;2022-08-30T14:11:15;6.80;;;2.00;;
67889;SDS011;54685;52.082;5.426;2022-08-30T14:13:44;4.07;;;2.22;;
67889;SDS011;54685;52.082;5.426;2022-08-30T14:16:32;7.50;;;1.80;;
67889;SDS011;54685;52.082;5.426;2022-08-30T14:19:01;3.28;;;1.73;;
67889;SDS011;54685;52.082;5.426;2022-08-30T14:21:31;5.32;;;2.20;;
67889;SDS011;54685;52.082;5.426;2022-08-30T14:23:58;5.47;;;2.00;;
67889;SDS011;54685;52.082;5.426;2022-08-30T14:26:32;3.90;;;1.70;;
67889;SDS011;54685;52.082;5.426;2022-08-30T14:29:06;5.32;;;1.60;;
67889;SDS011;54685;52.082;5.426;2022-08-30T14:31:36;3.50;;;1.67;;
67889;SDS011;54685;52.082;5.426;2022-08-30T14:34:04;4.07;;;1.70;;
67889;SDS011;54685;52.082;5.426;2022-08-30T14:36:32;4.47;;;1.50;;
67889;SDS011;54685;52.082;5.426;2022-08-30T14:39:00;6.30;;;1.58;;
67889;SDS011;54685;52.082;5.426;2022-08-30T14:41:33;2.35;;;1.20;;
67889;SDS011;54685;52.082;5.426;2022-08-30T14:44:05;2.13;;;1.20;;
67889;SDS011;54685;52.082;5.426;2022-08-30T14:46:33;2.80;;;1.60;;
67889;SDS011;54685;52.082;5.426;2022-08-30T14:49:00;3.50;;;1.25;;
67889;SDS011;54685;52.082;5.426;2022-08-30T14:51:31;8.65;;;1.65;;
67889;SDS011;54685;52.082;5.426;2022-08-30T14:53:59;7.18;;;1.40;;
67889;SDS011;54685;52.082;5.426;2022-08-30T14:56:26;2.50;;;1.42;;
67889;SDS011;54685;52.082;5.426;2022-08-30T14:58:53;5.68;;;1.55;;
67889;SDS011;54685;52.082;5.426;2022-08-30T15:01:26;3.17;;;1.65;;
67889;SDS011;54685;52.082;5.426;2022-08-30T15:03:53;2.13;;;1.40;;
67889;SDS011;54685;52.082;5.426;2022-08-30T15:06:21;3.53;;;1.30;;
67889;SDS011;54685;52.082;5.426;2022-08-30T15:08:51;3.05;;;1.60;;
67889;SDS011;54685;52.082;5.426;2022-08-30T15:11:19;2.83;;;1.60;;
67889;SDS011;54685;52.082;5.426;2022-08-30T15:13:48;7.72;;;2.00;;
67889;SDS011;54685;52.082;5.426;2022-08-30T15:16:23;5.50;;;1.23;;
67889;SDS011;54685;52.082;5.426;2022-08-30T15:18:52;3.15;;;1.42;;
67889;SDS011;54685;52.082;5.426;2022-08-30T15:21:23;7.10;;;1.40;;
67889;SDS011;54685;52.082;5.426;2022-08-30T15:23:52;4.72;;;1.45;;
67889;SDS011;54685;52.082;5.426;2022-08-30T15:26:20;2.00;;;1.20;;
67889;SDS011;54685;52.082;5.426;2022-08-30T15:28:47;6.45;;;1.63;;
67889;SDS011;54685;52.082;5.426;2022-08-30T15:31:14;3.05;;;1.40;;
67889;SDS011;54685;52.082;5.426;2022-08-30T15:33:43;2.38;;;1.40;;
67889;SDS011;54685;52.082;5.426;2022-08-30T15:36:11;3.65;;;1.20;;
67889;SDS011;54685;52.082;5.426;2022-08-30T15:38:39;4.30;;;1.50;;
67889;SDS011;54685;52.082;5.426;2022-08-30T15:41:09;1.95;;;1.10;;
67889;SDS011;54685;52.082;5.426;2022-08-30T15:43:37;2.63;;;1.40;;
67889;SDS011;54685;52.082;5.426;2022-08-30T15:46:24;3.08;;;1.30;;
67889;SDS011;54685;52.082;5.426;2022-08-30T15:49:01;4.50;;;1.52;;
67889;SDS011;54685;52.082;5.426;2022-08-30T15:51:31;2.10;;;1.55;;
67889;SDS011;54685;52.082;5.426;2022-08-30T15:54:07;6.18;;;1.35;;
67889;SDS011;54685;52.082;5.426;2022-08-30T15:56:37;5.90;;;1.45;;
67889;SDS011;54685;52.082;5.426;2022-08-30T15:59:07;4.38;;;1.52;;
67889;SDS011;54685;52.082;5.426;2022-08-30T16:01:34;6.00;;;1.40;;
67889;SDS011;54685;52.082;5.426;2022-08-30T16:04:02;2.08;;;1.00;;
67889;SDS011;54685;52.082;5.426;2022-08-30T16:06:30;11.95;;;1.33;;
67889;SDS011;54685;52.082;5.426;2022-08-30T16:09:00;3.95;;;1.45;;
67889;SDS011;54685;52.082;5.426;2022-08-30T16:11:30;5.50;;;1.60;;
67889;SDS011;54685;52.082;5.426;2022-08-30T16:13:57;8.50;;;1.55;;
67889;SDS011;54685;52.082;5.426;2022-08-30T16:16:24;4.85;;;1.48;;
67889;SDS011;54685;52.082;5.426;2022-08-30T16:18:51;4.68;;;1.40;;
67889;SDS011;54685;52.082;5.426;2022-08-30T16:21:30;4.80;;;1.42;;
67889;SDS011;54685;52.082;5.426;2022-08-30T16:23:59;1.80;;;1.30;;
67889;SDS011;54685;52.082;5.426;2022-08-30T16:26:27;5.38;;;1.25;;
67889;SDS011;54685;52.082;5.426;2022-08-30T16:28:55;3.00;;;1.40;;
67889;SDS011;54685;52.082;5.426;2022-08-30T16:31:24;2.03;;;1.20;;
67889;SDS011;54685;52.082;5.426;2022-08-30T16:33:53;2.45;;;1.30;;
67889;SDS011;54685;52.082;5.426;2022-08-30T16:36:25;1.95;;;1.30;;
67889;SDS011;54685;52.082;5.426;2022-08-30T16:38:53;6.18;;;1.48;;
67889;SDS011;54685;52.082;5.426;2022-08-30T16:41:23;1.60;;;1.27;;
67889;SDS011;54685;52.082;5.426;2022-08-30T16:43:51;3.45;;;1.60;;
67889;SDS011;54685;52.082;5.426;2022-08-30T16:46:19;2.05;;;1.38;;